Paradise, MI (49768)

3:30 AM EST on December 04, 2016 (GMT -0500)
MARITIME | | Change Station
Active Advisory: Special Statement

Elev 570 ft 41.40 °N, 82.30 °W | Updated 2 days ago

Cloudy
Cloudy
33 °F
Feels Like 26 °F
N
9
Wind Variable Wind from SE
Gusts mph

Today
High -- | Low -- °F
--% Chance of Precip.
Yesterday
High -- | Low -- °F
Precip. -- in
Pressure 30.20 in
Visibility 10.0 miles
Clouds Overcast 4500 ft
Windchill 26 °F
Dew Point 30 °F
Humidity 88%
Rainfall in
Snow Depth Not available.
8:07 AM 4:53 PM
Waxing Crescent, 21% visible
METAR KERY 040814Z AUTO 09005KT 10SM OVC045 00/00 A3020 RMK AO2 T10011005
Pressure 30.20 in
Visibility 10.0 miles
Clouds Overcast 4500 ft
Windchill 26 °F
Dew Point 30 °F
Humidity 88%
Rainfall in
Snow Depth Not available.
8:07 AM 4:53 PM
Waxing Crescent, 21% visible
METAR KERY 040814Z AUTO 09005KT 10SM OVC045 00/00 A3020 RMK AO2 T10011005

10-Day Weather Forecast

Almanac

Astronomy

Dec. 04, 2016 Rise Set
Actual Time
Civil Twilight
Nautical Twilight
Astronomical Twilight
Moon
Length of Visible Light
Length of Day
Tomorrow will be .
, % of the Moon is Illuminated

Today's Extremes

State Highs State Lows

Community

WunderPhotos

Upload Photos

1,955,587 photos uploaded!

WunderBlog® & News

Nearby

Air Quality

  Air Quality AQ Index Pollutant
Not available.

Snow Depth

Station Depth Elevation

Earthquake Activity

City Distance Mag. Time & Date
Minimum magnitude displayed is 2.5.

Coastal Water Temperatures

Place Temperature

Stations

Nearby Weather Stations

Station Location Temp. Windchill Dew Point Humidity Wind Precip. Elev Updated Type
                   

Watches & Warnings

Special Statement
Issued: 3:04 AM EST Dec. 4, 2016 – National Weather Service

... Accumulating snow expected this afternoon and tonight...

Widespread snow will develop this afternoon... with periods of snow
continuing through tonight. Total snow accumulation of one to four
inches is expected by Monday morning... with the highest amounts
along the St. Marys River.

Motorists are urged to use caution this afternoon and tonight as
slushy snow accumulations are expected... especially on secondary
and untreated Road surfaces.


Msb

304 am EST sun Dec 4 2016

... Accumulating snow expected this afternoon and tonight...

Widespread snow will develop this afternoon... with periods of snow
continuing through tonight. Total snow accumulation of one to four
inches is expected by Monday morning... with the highest amounts
along the St. Marys River.

Motorists are urged to use caution this afternoon and tonight as
slushy snow accumulations are expected... especially on secondary
and untreated Road surfaces.


Msb